Charlotte — C6DH3 — position and weather

sailwx.info

Track history (hours):
 
Tides and Currents Weather Stations Pressure Air Temp Water Temp Dewpoint Dewpoint Depression Visibility Wind Speed Wind Dir Waves Ship Positions

Charlotte

Last reported at 2018-Feb-09 18:00 UTC. Time now 2018-Feb-20 00:14 UTC.
Position N 25°35' W 080°00'.
Warning: this ship's position is 10 days out of date.

Length 90 m; draft 4.4 m.

Type: Cargo ship. MMSI: 311000674.

Date/timePositionNaut miles runAvg speedWind from/ knotsBaromVisibWave heightAir tempDewpointWater temp
2018-Feb-09 18:00N 25°35' W 080°00'4 7.1
2018-Feb-09 17:30N 25°39' W 080°00'4 7.2
2018-Feb-09 17:00N 25°42' W 080°01'7 7.5
2018-Feb-09 16:01N 25°50' W 080°01'4 8.5
2018-Feb-09 15:30N 25°54' W 080°02'9 9.4
2018-Feb-09 14:31N 26°03' W 080°02'3 6.8
2018-Feb-09 14:01N 26°06' W 080°05'2 4.1
2018-Feb-09 13:31N 26°04' W 080°07'1 0.1
2018-Feb-09 05:00N 26°05' W 080°07'4 0.1
2018-Feb-08 01:28N 26°08' W 080°05'0 0.0
2018-Feb-08 00:58N 26°08' W 080°05'0 0.0
2018-Feb-08 00:28N 26°08' W 080°05'0 0.0
2018-Feb-07 23:58N 26°08' W 080°05'0 0.0
2018-Feb-07 23:28N 26°08' W 080°05'0 0.0
2018-Feb-07 22:58N 26°08' W 080°05'0 0.0
2018-Feb-07 22:28N 26°08' W 080°05'0 0.0
2018-Feb-07 21:58N 26°08' W 080°05'0 0.0
2018-Feb-07 21:28N 26°08' W 080°05'0 0.0
2018-Feb-07 09:28N 26°08' W 080°05'0 0.0
2018-Feb-07 08:58N 26°08' W 080°05'0 0.0
2018-Feb-07 08:28N 26°08' W 080°05'0 0.0
2018-Feb-07 07:58N 26°08' W 080°05'0 0.0
2018-Feb-07 07:28N 26°08' W 080°05'0 0.0
2018-Feb-07 06:58N 26°08' W 080°05'0 0.0
2018-Feb-07 06:28N 26°08' W 080°05'0 0.0
2018-Feb-07 05:58N 26°08' W 080°05'0 0.0
2018-Feb-07 05:28N 26°08' W 080°05'0 0.0
2018-Feb-07 04:58N 26°08' W 080°05'0 0.0
2018-Feb-07 04:28N 26°08' W 080°05'0 0.0
2018-Feb-07 03:58N 26°08' W 080°05'0 0.0
2018-Feb-07 03:28N 26°08' W 080°05'0 0.0
2018-Feb-07 02:58N 26°08' W 080°05'0 0.0
2018-Feb-07 02:28N 26°08' W 080°05'0 0.0
2018-Feb-07 01:58N 26°08' W 080°05'0 0.0
2018-Feb-07 01:28N 26°08' W 080°05'0 0.1
2018-Feb-07 00:58N 26°08' W 080°05'3 6.3
2018-Feb-07 00:30N 26°05' W 080°05'2 3.6
2018-Feb-06 23:58N 26°04' W 080°07'0 0.0
2018-Feb-06 23:28N 26°04' W 080°07'0 0.0
2018-Feb-06 22:58N 26°04' W 080°07'0 0.0
2018-Feb-06 22:28N 26°04' W 080°07'0 0.0
2018-Feb-06 21:58N 26°04' W 080°07'0 0.0
2018-Feb-06 21:28N 26°04' W 080°07'0 0.0
2018-Feb-06 20:58N 26°04' W 080°07'0 0.0
2018-Feb-06 20:28N 26°04' W 080°07'0 0.0
2018-Feb-06 19:58N 26°04' W 080°07'0 0.0
2018-Feb-06 19:28N 26°04' W 080°07'0 0.0
2018-Feb-06 18:58N 26°04' W 080°07'0 0.3
2018-Feb-06 18:30N 26°04' W 080°07'6 4.1
2018-Feb-06 16:59N 26°03' W 080°00'4 9.0
2018-Feb-06 16:30N 25°59' W 079°60'5 9.2
2018-Feb-06 16:00N 25°55' W 080°01'14 9.5
2018-Feb-06 14:30N 25°40' W 080°01'510.8
2018-Feb-06 14:00N 25°35' W 080°01'  
Track history (hours):
 
Tides and Currents Weather Stations Pressure Air Temp Water Temp Dewpoint Dewpoint Depression Visibility Wind Speed Wind Dir Waves Ship Positions

Charlotte

Last reported at 2018-Feb-09 18:00 UTC. Time now 2018-Feb-20 00:14 UTC.
Position N 25°35' W 080°00'.
Warning: this ship's position is 10 days out of date.

Length 90 m; draft 4.4 m.

Type: Cargo ship. MMSI: 311000674.

Date/timePositionNaut miles runAvg speedWind from/ knotsBaromVisibWave heightAir tempDewpointWater temp
2018-Feb-09 18:00N 25°35' W 080°00'4 7.1
2018-Feb-09 17:30N 25°39' W 080°00'4 7.2
2018-Feb-09 17:00N 25°42' W 080°01'7 7.5
2018-Feb-09 16:01N 25°50' W 080°01'4 8.5
2018-Feb-09 15:30N 25°54' W 080°02'9 9.4
2018-Feb-09 14:31N 26°03' W 080°02'3 6.8
2018-Feb-09 14:01N 26°06' W 080°05'2 4.1
2018-Feb-09 13:31N 26°04' W 080°07'1 0.1
2018-Feb-09 05:00N 26°05' W 080°07'4 0.1
2018-Feb-08 01:28N 26°08' W 080°05'0 0.0
2018-Feb-08 00:58N 26°08' W 080°05'0 0.0
2018-Feb-08 00:28N 26°08' W 080°05'0 0.0
2018-Feb-07 23:58N 26°08' W 080°05'0 0.0
2018-Feb-07 23:28N 26°08' W 080°05'0 0.0
2018-Feb-07 22:58N 26°08' W 080°05'0 0.0
2018-Feb-07 22:28N 26°08' W 080°05'0 0.0
2018-Feb-07 21:58N 26°08' W 080°05'0 0.0
2018-Feb-07 21:28N 26°08' W 080°05'0 0.0
2018-Feb-07 09:28N 26°08' W 080°05'0 0.0
2018-Feb-07 08:58N 26°08' W 080°05'0 0.0
2018-Feb-07 08:28N 26°08' W 080°05'0 0.0
2018-Feb-07 07:58N 26°08' W 080°05'0 0.0
2018-Feb-07 07:28N 26°08' W 080°05'0 0.0
2018-Feb-07 06:58N 26°08' W 080°05'0 0.0
2018-Feb-07 06:28N 26°08' W 080°05'0 0.0
2018-Feb-07 05:58N 26°08' W 080°05'0 0.0
2018-Feb-07 05:28N 26°08' W 080°05'0 0.0
2018-Feb-07 04:58N 26°08' W 080°05'0 0.0
2018-Feb-07 04:28N 26°08' W 080°05'0 0.0
2018-Feb-07 03:58N 26°08' W 080°05'0 0.0
2018-Feb-07 03:28N 26°08' W 080°05'0 0.0
2018-Feb-07 02:58N 26°08' W 080°05'0 0.0
2018-Feb-07 02:28N 26°08' W 080°05'0 0.0
2018-Feb-07 01:58N 26°08' W 080°05'0 0.0
2018-Feb-07 01:28N 26°08' W 080°05'0 0.1
2018-Feb-07 00:58N 26°08' W 080°05'3 6.3
2018-Feb-07 00:30N 26°05' W 080°05'2 3.6
2018-Feb-06 23:58N 26°04' W 080°07'0 0.0
2018-Feb-06 23:28N 26°04' W 080°07'0 0.0
2018-Feb-06 22:58N 26°04' W 080°07'0 0.0
2018-Feb-06 22:28N 26°04' W 080°07'0 0.0
2018-Feb-06 21:58N 26°04' W 080°07'0 0.0
2018-Feb-06 21:28N 26°04' W 080°07'0 0.0
2018-Feb-06 20:58N 26°04' W 080°07'0 0.0
2018-Feb-06 20:28N 26°04' W 080°07'0 0.0
2018-Feb-06 19:58N 26°04' W 080°07'0 0.0
2018-Feb-06 19:28N 26°04' W 080°07'0 0.0
2018-Feb-06 18:58N 26°04' W 080°07'0 0.3
2018-Feb-06 18:30N 26°04' W 080°07'6 4.1
2018-Feb-06 16:59N 26°03' W 080°00'4 9.0
2018-Feb-06 16:30N 25°59' W 079°60'5 9.2
2018-Feb-06 16:00N 25°55' W 080°01'14 9.5
2018-Feb-06 14:30N 25°40' W 080°01'510.8
2018-Feb-06 14:00N 25°35' W 080°01'  

Dump ship's entire track history